Terminal Aerodrome Forecast
Issued by NWS Portland, ME

Current Version | Previous Version | Text Only | Print | Product List | Glossary On
Versions: 1 2 3 4 5 6 7 8 9 10 11 12 13 14 15 16 17 18 19 20 21 22
326
FTUS41 KGYX 071123
TAFCON
TAF
KCON 071123Z 0712/0812 22006KT P6SM SCT250
     FM072200 02006KT P6SM SCT100
     FM080900 01014KT P6SM BKN100=

USA.gov is the U.S. government's official web portal to all federal, state and local government web resources and services.